sensor_id;sensor_type;location;lat;lon;timestamp;pressure;altitude;pressure_sealevel;temperature;humidity
71107;BME280;58763;47.982;11.516;2022-10-04T00:02:16;94867.94;;;8.03;74.32
71107;BME280;58763;47.982;11.516;2022-10-04T00:09:43;94879.31;;;7.83;73.63
71107;BME280;58763;47.982;11.516;2022-10-04T00:12:32;94878.56;;;7.88;73.50
71107;BME280;58763;47.982;11.516;2022-10-04T00:15:03;94885.19;;;7.80;73.49
71107;BME280;58763;47.982;11.516;2022-10-04T00:17:31;94875.09;;;7.71;73.87
71107;BME280;58763;47.982;11.516;2022-10-04T00:20:00;94865.16;;;7.71;73.54
71107;BME280;58763;47.982;11.516;2022-10-04T00:22:31;94866.16;;;7.65;73.88
71107;BME280;58763;47.982;11.516;2022-10-04T00:27:33;94872.88;;;7.62;75.08
71107;BME280;58763;47.982;11.516;2022-10-04T00:37:58;94855.75;;;7.52;75.62
71107;BME280;58763;47.982;11.516;2022-10-04T00:40:34;94854.16;;;7.51;76.71
71107;BME280;58763;47.982;11.516;2022-10-04T00:43:14;94864.09;;;7.50;76.28
71107;BME280;58763;47.982;11.516;2022-10-04T00:45:49;94860.72;;;7.60;75.53
71107;BME280;58763;47.982;11.516;2022-10-04T00:51:20;94852.78;;;7.48;77.19
71107;BME280;58763;47.982;11.516;2022-10-04T00:56:30;94843.19;;;7.57;75.39
71107;BME280;58763;47.982;11.516;2022-10-04T01:01:26;94847.88;;;7.45;74.17
71107;BME280;58763;47.982;11.516;2022-10-04T01:03:55;94844.06;;;7.41;74.16
71107;BME280;58763;47.982;11.516;2022-10-04T01:06:22;94838.06;;;7.34;74.46
71107;BME280;58763;47.982;11.516;2022-10-04T01:08:59;94836.94;;;7.30;75.00
71107;BME280;58763;47.982;11.516;2022-10-04T01:11:29;94842.72;;;7.22;75.34
71107;BME280;58763;47.982;11.516;2022-10-04T01:13:57;94843.75;;;7.16;75.41
71107;BME280;58763;47.982;11.516;2022-10-04T01:16:31;94842.19;;;7.20;75.44
71107;BME280;58763;47.982;11.516;2022-10-04T01:24:36;94830.94;;;7.23;76.60
71107;BME280;58763;47.982;11.516;2022-10-04T01:27:02;94826.66;;;7.27;76.89
71107;BME280;58763;47.982;11.516;2022-10-04T01:29:30;94823.72;;;7.29;76.61
71107;BME280;58763;47.982;11.516;2022-10-04T01:31:57;94821.28;;;7.27;76.65
71107;BME280;58763;47.982;11.516;2022-10-04T01:34:25;94823.91;;;7.22;76.65
71107;BME280;58763;47.982;11.516;2022-10-04T01:36:54;94823.84;;;7.17;77.04
71107;BME280;58763;47.982;11.516;2022-10-04T01:39:21;94822.47;;;7.15;76.69
71107;BME280;58763;47.982;11.516;2022-10-04T01:44:51;94814.00;;;7.06;76.81
71107;BME280;58763;47.982;11.516;2022-10-04T01:50:10;94816.06;;;6.99;78.06
71107;BME280;58763;47.982;11.516;2022-10-04T01:52:42;94813.63;;;6.97;78.83
71107;BME280;58763;47.982;11.516;2022-10-04T01:55:15;94809.38;;;7.02;79.42
71107;BME280;58763;47.982;11.516;2022-10-04T01:57:46;94808.91;;;7.05;79.57
71107;BME280;58763;47.982;11.516;2022-10-04T02:00:14;94807.13;;;7.15;77.76
71107;BME280;58763;47.982;11.516;2022-10-04T02:05:08;94795.94;;;7.02;76.61
71107;BME280;58763;47.982;11.516;2022-10-04T02:07:36;94798.88;;;7.00;76.38
71107;BME280;58763;47.982;11.516;2022-10-04T02:10:08;94796.69;;;6.97;76.74
71107;BME280;58763;47.982;11.516;2022-10-04T02:12:35;94790.34;;;6.86;76.63
71107;BME280;58763;47.982;11.516;2022-10-04T02:15:06;94787.34;;;6.83;76.93
71107;BME280;58763;47.982;11.516;2022-10-04T02:17:38;94784.81;;;6.93;76.38
71107;BME280;58763;47.982;11.516;2022-10-04T02:20:21;94783.97;;;6.92;76.57
71107;BME280;58763;47.982;11.516;2022-10-04T02:22:58;94778.19;;;6.84;77.08
71107;BME280;58763;47.982;11.516;2022-10-04T02:25:28;94778.94;;;6.79;77.36
71107;BME280;58763;47.982;11.516;2022-10-04T02:27:54;94783.19;;;6.75;77.72
71107;BME280;58763;47.982;11.516;2022-10-04T02:30:21;94773.91;;;6.83;77.28
71107;BME280;58763;47.982;11.516;2022-10-04T02:32:47;94767.44;;;6.84;77.25
71107;BME280;58763;47.982;11.516;2022-10-04T02:35:25;94772.81;;;6.84;77.13
71107;BME280;58763;47.982;11.516;2022-10-04T02:38:03;94768.44;;;6.78;77.96
71107;BME280;58763;47.982;11.516;2022-10-04T02:40:40;94772.19;;;6.77;77.44
71107;BME280;58763;47.982;11.516;2022-10-04T02:43:21;94778.66;;;6.76;78.07
71107;BME280;58763;47.982;11.516;2022-10-04T02:48:45;94792.16;;;6.81;77.66
71107;BME280;58763;47.982;11.516;2022-10-04T02:51:33;94782.94;;;6.77;77.71
71107;BME280;58763;47.982;11.516;2022-10-04T02:56:50;94786.22;;;6.79;76.41
71107;BME280;58763;47.982;11.516;2022-10-04T02:59:19;94785.63;;;6.77;76.41
71107;BME280;58763;47.982;11.516;2022-10-04T03:01:52;94788.75;;;6.69;76.86
71107;BME280;58763;47.982;11.516;2022-10-04T03:04:21;94784.75;;;6.71;76.87
71107;BME280;58763;47.982;11.516;2022-10-04T03:06:49;94778.25;;;6.67;77.61
71107;BME280;58763;47.982;11.516;2022-10-04T03:09:15;94777.44;;;6.67;78.00
71107;BME280;58763;47.982;11.516;2022-10-04T03:11:43;94769.03;;;6.63;78.88
71107;BME280;58763;47.982;11.516;2022-10-04T03:14:20;94766.91;;;6.65;78.00
71107;BME280;58763;47.982;11.516;2022-10-04T03:16:49;94770.28;;;6.56;77.36
71107;BME280;58763;47.982;11.516;2022-10-04T03:19:19;94779.06;;;6.51;76.86
71107;BME280;58763;47.982;11.516;2022-10-04T03:21:48;94778.19;;;6.46;77.52
71107;BME280;58763;47.982;11.516;2022-10-04T03:24:17;94779.00;;;6.46;77.83
71107;BME280;58763;47.982;11.516;2022-10-04T03:27:05;94776.63;;;6.50;77.70
71107;BME280;58763;47.982;11.516;2022-10-04T03:29:32;94783.31;;;6.47;77.50
71107;BME280;58763;47.982;11.516;2022-10-04T03:32:00;94777.13;;;6.47;78.12
71107;BME280;58763;47.982;11.516;2022-10-04T03:34:32;94778.75;;;6.48;77.94
71107;BME280;58763;47.982;11.516;2022-10-04T03:36:59;94775.03;;;6.49;77.31
71107;BME280;58763;47.982;11.516;2022-10-04T03:39:35;94763.75;;;6.52;77.20
71107;BME280;58763;47.982;11.516;2022-10-04T03:42:06;94768.00;;;6.48;77.30
71107;BME280;58763;47.982;11.516;2022-10-04T03:44:34;94768.00;;;6.48;77.31
71107;BME280;58763;47.982;11.516;2022-10-04T03:47:07;94772.09;;;6.50;77.70
71107;BME280;58763;47.982;11.516;2022-10-04T03:49:35;94767.75;;;6.49;77.28
71107;BME280;58763;47.982;11.516;2022-10-04T03:52:02;94761.50;;;6.44;77.56
71107;BME280;58763;47.982;11.516;2022-10-04T03:54:29;94766.06;;;6.43;77.67
71107;BME280;58763;47.982;11.516;2022-10-04T03:56:57;94764.59;;;6.36;77.44
71107;BME280;58763;47.982;11.516;2022-10-04T03:59:25;94765.59;;;6.30;77.22
71107;BME280;58763;47.982;11.516;2022-10-04T04:02:40;94768.03;;;6.31;77.31
71107;BME280;58763;47.982;11.516;2022-10-04T04:05:28;94771.78;;;6.30;77.40
71107;BME280;58763;47.982;11.516;2022-10-04T04:08:10;94784.69;;;6.33;77.07
71107;BME280;58763;47.982;11.516;2022-10-04T04:10:42;94779.50;;;6.26;77.73
71107;BME280;58763;47.982;11.516;2022-10-04T04:15:37;94778.28;;;6.17;77.28
71107;BME280;58763;47.982;11.516;2022-10-04T04:18:33;94777.81;;;6.20;77.19
71107;BME280;58763;47.982;11.516;2022-10-04T04:20:58;94767.84;;;6.21;77.51
71107;BME280;58763;47.982;11.516;2022-10-04T04:23:34;94769.78;;;6.25;78.11
71107;BME280;58763;47.982;11.516;2022-10-04T04:28:45;94762.25;;;6.22;78.31
71107;BME280;58763;47.982;11.516;2022-10-04T04:31:23;94760.88;;;6.20;77.49
71107;BME280;58763;47.982;11.516;2022-10-04T04:34:00;94760.53;;;6.16;77.57
71107;BME280;58763;47.982;11.516;2022-10-04T04:36:28;94770.38;;;6.11;77.58
71107;BME280;58763;47.982;11.516;2022-10-04T04:39:23;94766.06;;;6.26;76.64
71107;BME280;58763;47.982;11.516;2022-10-04T04:42:03;94766.31;;;6.08;77.80
71107;BME280;58763;47.982;11.516;2022-10-04T04:44:30;94766.22;;;6.03;78.59
71107;BME280;58763;47.982;11.516;2022-10-04T04:46:56;94771.69;;;6.08;79.72
71107;BME280;58763;47.982;11.516;2022-10-04T04:49:26;94768.50;;;6.11;78.71
71107;BME280;58763;47.982;11.516;2022-10-04T04:51:53;94774.94;;;6.10;79.34
71107;BME280;58763;47.982;11.516;2022-10-04T04:54:22;94777.38;;;6.28;77.96
71107;BME280;58763;47.982;11.516;2022-10-04T04:56:51;94767.38;;;6.24;77.30
71107;BME280;58763;47.982;11.516;2022-10-04T04:59:17;94778.19;;;6.12;78.09
71107;BME280;58763;47.982;11.516;2022-10-04T05:01:46;94770.63;;;6.09;78.62
71107;BME280;58763;47.982;11.516;2022-10-04T05:06:39;94777.63;;;6.10;77.79
71107;BME280;58763;47.982;11.516;2022-10-04T05:09:21;94766.41;;;6.13;77.51
71107;BME280;58763;47.982;11.516;2022-10-04T05:11:48;94768.84;;;6.15;77.48
71107;BME280;58763;47.982;11.516;2022-10-04T05:14:16;94752.72;;;6.15;77.75
71107;BME280;58763;47.982;11.516;2022-10-04T05:16:46;94762.00;;;6.07;78.21
71107;BME280;58763;47.982;11.516;2022-10-04T05:21:42;94762.31;;;5.94;79.03
71107;BME280;58763;47.982;11.516;2022-10-04T05:24:18;94764.03;;;6.00;78.88
71107;BME280;58763;47.982;11.516;2022-10-04T05:26:49;94774.75;;;6.00;79.55
71107;BME280;58763;47.982;11.516;2022-10-04T05:29:17;94777.44;;;6.00;80.18
71107;BME280;58763;47.982;11.516;2022-10-04T05:31:48;94779.19;;;6.06;79.26
71107;BME280;58763;47.982;11.516;2022-10-04T05:34:26;94778.53;;;5.99;79.23
71107;BME280;58763;47.982;11.516;2022-10-04T05:42:34;94779.75;;;6.08;78.40
71107;BME280;58763;47.982;11.516;2022-10-04T05:44:56;94778.19;;;6.12;78.40
71107;BME280;58763;47.982;11.516;2022-10-04T05:47:25;94788.94;;;6.12;78.74
71107;BME280;58763;47.982;11.516;2022-10-04T05:49:54;94780.88;;;6.12;79.78
71107;BME280;58763;47.982;11.516;2022-10-04T05:52:35;94774.78;;;6.17;80.10
71107;BME280;58763;47.982;11.516;2022-10-04T05:55:24;94768.66;;;6.21;80.45
71107;BME280;58763;47.982;11.516;2022-10-04T06:00:18;94751.72;;;6.38;80.10
71107;BME280;58763;47.982;11.516;2022-10-04T06:05:53;94754.75;;;6.24;82.72
71107;BME280;58763;47.982;11.516;2022-10-04T06:08:38;94760.78;;;6.32;83.69
71107;BME280;58763;47.982;11.516;2022-10-04T06:14:03;94762.16;;;6.51;84.93
71107;BME280;58763;47.982;11.516;2022-10-04T06:24:32;94776.78;;;6.76;84.49
71107;BME280;58763;47.982;11.516;2022-10-04T06:27:03;94778.19;;;6.84;84.60
71107;BME280;58763;47.982;11.516;2022-10-04T06:29:42;94792.47;;;6.84;85.13
71107;BME280;58763;47.982;11.516;2022-10-04T06:47:03;94789.88;;;7.33;85.61
71107;BME280;58763;47.982;11.516;2022-10-04T06:49:54;94785.50;;;7.48;85.52
71107;BME280;58763;47.982;11.516;2022-10-04T06:55:30;94774.94;;;7.68;85.26
71107;BME280;58763;47.982;11.516;2022-10-04T06:58:24;94769.91;;;7.77;85.49
71107;BME280;58763;47.982;11.516;2022-10-04T07:03:39;94779.31;;;8.01;85.64
71107;BME280;58763;47.982;11.516;2022-10-04T07:06:07;94772.16;;;8.12;84.99
71107;BME280;58763;47.982;11.516;2022-10-04T07:08:47;94767.34;;;8.14;85.39
71107;BME280;58763;47.982;11.516;2022-10-04T07:11:25;94777.38;;;8.23;85.62
71107;BME280;58763;47.982;11.516;2022-10-04T07:27:07;94782.75;;;8.92;85.39
71107;BME280;58763;47.982;11.516;2022-10-04T07:29:38;94779.38;;;9.12;84.84
71107;BME280;58763;47.982;11.516;2022-10-04T07:32:12;94785.31;;;9.14;85.04
71107;BME280;58763;47.982;11.516;2022-10-04T07:35:03;94782.19;;;9.32;84.44
71107;BME280;58763;47.982;11.516;2022-10-04T07:37:35;94778.44;;;9.38;83.46
71107;BME280;58763;47.982;11.516;2022-10-04T07:40:21;94787.91;;;9.45;82.98
71107;BME280;58763;47.982;11.516;2022-10-04T07:42:53;94784.44;;;9.60;83.02
71107;BME280;58763;47.982;11.516;2022-10-04T07:45:40;94783.13;;;9.67;82.14
71107;BME280;58763;47.982;11.516;2022-10-04T07:48:16;94786.38;;;9.69;82.84
71107;BME280;58763;47.982;11.516;2022-10-04T08:04:23;94788.44;;;10.60;78.17
71107;BME280;58763;47.982;11.516;2022-10-04T08:06:58;94799.25;;;10.70;77.35
71107;BME280;58763;47.982;11.516;2022-10-04T08:12:42;94807.63;;;10.83;78.79
71107;BME280;58763;47.982;11.516;2022-10-04T08:17:55;94808.94;;;11.36;78.01
71107;BME280;58763;47.982;11.516;2022-10-04T08:37:49;94813.66;;;12.33;71.88
71107;BME280;58763;47.982;11.516;2022-10-04T08:43:30;94815.88;;;12.65;71.02
71107;BME280;58763;47.982;11.516;2022-10-04T09:16:25;94813.56;;;12.82;73.64
71107;BME280;58763;47.982;11.516;2022-10-04T09:30:14;94810.28;;;13.19;73.01
71107;BME280;58763;47.982;11.516;2022-10-04T09:38:22;94807.22;;;13.54;72.01
71107;BME280;58763;47.982;11.516;2022-10-04T09:41:26;94804.75;;;13.58;71.25
71107;BME280;58763;47.982;11.516;2022-10-04T09:50:09;94793.34;;;13.98;68.53
71107;BME280;58763;47.982;11.516;2022-10-04T10:06:29;94792.44;;;14.26;67.46
71107;BME280;58763;47.982;11.516;2022-10-04T10:09:20;94805.63;;;14.38;67.22
71107;BME280;58763;47.982;11.516;2022-10-04T10:15:32;94798.84;;;14.73;66.49
71107;BME280;58763;47.982;11.516;2022-10-04T10:18:24;94783.56;;;14.77;66.85
71107;BME280;58763;47.982;11.516;2022-10-04T10:26:54;94802.81;;;14.80;65.84
71107;BME280;58763;47.982;11.516;2022-10-04T10:35:31;94801.00;;;15.08;64.43
71107;BME280;58763;47.982;11.516;2022-10-04T10:56:59;94810.28;;;15.07;63.25
71107;BME280;58763;47.982;11.516;2022-10-04T11:02:14;94812.34;;;15.29;63.00
71107;BME280;58763;47.982;11.516;2022-10-04T11:10:27;94823.59;;;15.41;63.72
71107;BME280;58763;47.982;11.516;2022-10-04T11:27:03;94798.91;;;15.64;63.05
71107;BME280;58763;47.982;11.516;2022-10-04T11:30:06;94803.69;;;15.72;62.58
71107;BME280;58763;47.982;11.516;2022-10-04T11:38:09;94793.25;;;16.15;60.81
71107;BME280;58763;47.982;11.516;2022-10-04T11:43:41;94799.28;;;16.39;59.15
71107;BME280;58763;47.982;11.516;2022-10-04T11:49:47;94794.19;;;16.60;58.35
71107;BME280;58763;47.982;11.516;2022-10-04T11:58:00;94788.19;;;17.16;59.10
71107;BME280;58763;47.982;11.516;2022-10-04T12:00:51;94791.91;;;17.20;57.53
71107;BME280;58763;47.982;11.516;2022-10-04T12:14:28;94771.34;;;16.92;56.72
71107;BME280;58763;47.982;11.516;2022-10-04T12:17:42;94771.75;;;17.07;57.71
71107;BME280;58763;47.982;11.516;2022-10-04T12:20:42;94770.13;;;17.28;58.11
71107;BME280;58763;47.982;11.516;2022-10-04T12:31:44;94761.16;;;17.67;55.94
71107;BME280;58763;47.982;11.516;2022-10-04T12:34:21;94751.66;;;17.65;55.03
71107;BME280;58763;47.982;11.516;2022-10-04T12:37:17;94756.03;;;17.74;56.07
71107;BME280;58763;47.982;11.516;2022-10-04T12:40:06;94748.53;;;17.80;55.79
71107;BME280;58763;47.982;11.516;2022-10-04T12:42:49;94743.69;;;17.85;55.88
71107;BME280;58763;47.982;11.516;2022-10-04T13:01:24;94742.06;;;17.76;55.28
71107;BME280;58763;47.982;11.516;2022-10-04T13:09:36;94744.22;;;18.05;53.43
71107;BME280;58763;47.982;11.516;2022-10-04T13:15:24;94739.44;;;18.19;52.15
71107;BME280;58763;47.982;11.516;2022-10-04T13:31:11;94736.28;;;18.68;49.53
71107;BME280;58763;47.982;11.516;2022-10-04T13:33:46;94741.44;;;18.87;48.53
71107;BME280;58763;47.982;11.516;2022-10-04T13:36:31;94736.28;;;18.94;47.65
71107;BME280;58763;47.982;11.516;2022-10-04T13:42:25;94733.38;;;18.82;47.94
71107;BME280;58763;47.982;11.516;2022-10-04T13:55:39;94738.69;;;19.04;48.27
71107;BME280;58763;47.982;11.516;2022-10-04T13:58:33;94746.22;;;19.24;47.67
71107;BME280;58763;47.982;11.516;2022-10-04T14:01:23;94740.25;;;19.39;46.36
71107;BME280;58763;47.982;11.516;2022-10-04T14:18:13;94736.50;;;19.35;47.58
71107;BME280;58763;47.982;11.516;2022-10-04T14:24:01;94748.72;;;19.63;47.31
71107;BME280;58763;47.982;11.516;2022-10-04T14:26:54;94746.22;;;19.41;47.56
71107;BME280;58763;47.982;11.516;2022-10-04T14:30:29;94743.47;;;19.24;47.54
71107;BME280;58763;47.982;11.516;2022-10-04T14:35:32;94747.19;;;19.28;48.83
71107;BME280;58763;47.982;11.516;2022-10-04T14:55:33;94741.47;;;19.59;49.96
71107;BME280;58763;47.982;11.516;2022-10-04T15:06:10;94739.13;;;19.40;50.74
71107;BME280;58763;47.982;11.516;2022-10-04T15:11:55;94747.06;;;19.07;50.74
71107;BME280;58763;47.982;11.516;2022-10-04T15:14:35;94742.22;;;19.13;52.18
71107;BME280;58763;47.982;11.516;2022-10-04T15:17:26;94744.50;;;19.11;51.30
71107;BME280;58763;47.982;11.516;2022-10-04T15:20:01;94738.22;;;19.02;51.67
71107;BME280;58763;47.982;11.516;2022-10-04T15:22:40;94747.41;;;18.97;52.34
71107;BME280;58763;47.982;11.516;2022-10-04T15:34:11;94746.28;;;18.90;53.47
71107;BME280;58763;47.982;11.516;2022-10-04T15:42:38;94756.59;;;18.76;54.28
71107;BME280;58763;47.982;11.516;2022-10-04T15:50:32;94754.50;;;18.64;54.13
71107;BME280;58763;47.982;11.516;2022-10-04T15:53:22;94760.28;;;18.62;53.71
71107;BME280;58763;47.982;11.516;2022-10-04T15:55:58;94768.19;;;18.47;54.47
71107;BME280;58763;47.982;11.516;2022-10-04T16:01:05;94754.75;;;18.37;54.73
71107;BME280;58763;47.982;11.516;2022-10-04T16:06:52;94750.72;;;18.17;55.16
71107;BME280;58763;47.982;11.516;2022-10-04T16:14:56;94749.97;;;17.86;56.31
71107;BME280;58763;47.982;11.516;2022-10-04T16:23:29;94749.53;;;17.53;57.59
71107;BME280;58763;47.982;11.516;2022-10-04T16:26:02;94749.03;;;17.51;58.11
71107;BME280;58763;47.982;11.516;2022-10-04T16:34:37;94748.72;;;17.22;58.42
71107;BME280;58763;47.982;11.516;2022-10-04T16:39:37;94744.75;;;16.84;59.02
71107;BME280;58763;47.982;11.516;2022-10-04T16:42:40;94746.78;;;16.78;58.97
71107;BME280;58763;47.982;11.516;2022-10-04T16:47:51;94745.06;;;16.60;59.60
71107;BME280;58763;47.982;11.516;2022-10-04T16:50:47;94751.75;;;16.54;59.65
71107;BME280;58763;47.982;11.516;2022-10-04T16:56:23;94746.03;;;16.28;60.54
71107;BME280;58763;47.982;11.516;2022-10-04T16:59:11;94745.16;;;16.19;61.08
71107;BME280;58763;47.982;11.516;2022-10-04T17:12:52;94743.56;;;15.64;62.25
71107;BME280;58763;47.982;11.516;2022-10-04T17:15:30;94736.63;;;15.58;62.48
71107;BME280;58763;47.982;11.516;2022-10-04T17:26:25;94733.13;;;15.25;62.05
71107;BME280;58763;47.982;11.516;2022-10-04T17:31:51;94740.06;;;15.04;62.56
71107;BME280;58763;47.982;11.516;2022-10-04T17:48:07;94744.88;;;14.42;64.37
71107;BME280;58763;47.982;11.516;2022-10-04T17:50:59;94741.56;;;14.27;64.46
71107;BME280;58763;47.982;11.516;2022-10-04T17:53:50;94736.81;;;14.19;65.20
71107;BME280;58763;47.982;11.516;2022-10-04T17:56:42;94732.00;;;14.11;65.30
71107;BME280;58763;47.982;11.516;2022-10-04T17:59:14;94730.56;;;14.00;65.63
71107;BME280;58763;47.982;11.516;2022-10-04T18:01:44;94735.91;;;13.86;65.81
71107;BME280;58763;47.982;11.516;2022-10-04T18:06:56;94741.16;;;13.77;66.38
71107;BME280;58763;47.982;11.516;2022-10-04T18:09:45;94737.13;;;13.75;67.12
71107;BME280;58763;47.982;11.516;2022-10-04T18:12:33;94747.59;;;13.63;66.92
71107;BME280;58763;47.982;11.516;2022-10-04T18:15:06;94757.16;;;13.60;67.29
71107;BME280;58763;47.982;11.516;2022-10-04T18:17:43;94757.94;;;13.61;66.54
71107;BME280;58763;47.982;11.516;2022-10-04T18:22:48;94752.34;;;13.52;66.79
71107;BME280;58763;47.982;11.516;2022-10-04T18:28:02;94753.38;;;13.56;66.35
71107;BME280;58763;47.982;11.516;2022-10-04T18:33:14;94754.75;;;13.54;66.28
71107;BME280;58763;47.982;11.516;2022-10-04T18:35:51;94761.94;;;13.45;66.51
71107;BME280;58763;47.982;11.516;2022-10-04T18:38:23;94772.25;;;13.48;66.96
71107;BME280;58763;47.982;11.516;2022-10-04T18:41:21;94767.50;;;13.35;67.01
71107;BME280;58763;47.982;11.516;2022-10-04T18:43:51;94756.91;;;13.33;67.42
71107;BME280;58763;47.982;11.516;2022-10-04T18:46:20;94763.22;;;13.29;66.70
71107;BME280;58763;47.982;11.516;2022-10-04T18:48:51;94762.16;;;13.25;67.29
71107;BME280;58763;47.982;11.516;2022-10-04T18:51:36;94766.50;;;13.26;67.94
71107;BME280;58763;47.982;11.516;2022-10-04T19:05:39;94773.88;;;12.91;70.83
71107;BME280;58763;47.982;11.516;2022-10-04T19:14:00;94778.22;;;12.59;71.74
71107;BME280;58763;47.982;11.516;2022-10-04T19:21:48;94768.94;;;12.31;72.31
71107;BME280;58763;47.982;11.516;2022-10-04T19:49:02;94803.31;;;11.97;72.94
71107;BME280;58763;47.982;11.516;2022-10-04T19:51:44;94808.72;;;11.97;72.90
71107;BME280;58763;47.982;11.516;2022-10-04T19:54:12;94803.56;;;11.95;72.79
71107;BME280;58763;47.982;11.516;2022-10-04T19:56:45;94793.81;;;11.94;72.59
71107;BME280;58763;47.982;11.516;2022-10-04T19:59:19;94793.00;;;11.99;72.33
71107;BME280;58763;47.982;11.516;2022-10-04T20:01:49;94785.44;;;11.91;72.64
71107;BME280;58763;47.982;11.516;2022-10-04T20:04:17;94787.09;;;11.82;72.94
71107;BME280;58763;47.982;11.516;2022-10-04T20:07:24;94797.13;;;11.81;73.64
71107;BME280;58763;47.982;11.516;2022-10-04T20:10:15;94796.34;;;11.81;72.92
71107;BME280;58763;47.982;11.516;2022-10-04T20:17:59;94799.88;;;11.76;71.83
71107;BME280;58763;47.982;11.516;2022-10-04T20:23:07;94798.25;;;11.75;72.50
71107;BME280;58763;47.982;11.516;2022-10-04T20:28:09;94789.59;;;11.58;73.90
71107;BME280;58763;47.982;11.516;2022-10-04T20:36:02;94787.53;;;11.35;75.11
71107;BME280;58763;47.982;11.516;2022-10-04T20:43:55;94785.38;;;11.27;74.73
71107;BME280;58763;47.982;11.516;2022-10-04T20:46:22;94788.34;;;11.25;74.06
71107;BME280;58763;47.982;11.516;2022-10-04T20:48:48;94787.84;;;11.18;74.08
71107;BME280;58763;47.982;11.516;2022-10-04T20:51:18;94790.31;;;11.04;74.71
71107;BME280;58763;47.982;11.516;2022-10-04T20:53:44;94788.94;;;11.02;74.84
71107;BME280;58763;47.982;11.516;2022-10-04T20:56:24;94799.78;;;10.97;75.67
71107;BME280;58763;47.982;11.516;2022-10-04T20:58:52;94794.94;;;10.99;75.69
71107;BME280;58763;47.982;11.516;2022-10-04T21:01:28;94796.53;;;11.00;76.35
71107;BME280;58763;47.982;11.516;2022-10-04T21:04:29;94795.72;;;11.04;76.28
71107;BME280;58763;47.982;11.516;2022-10-04T21:07:07;94806.28;;;11.06;76.59
71107;BME280;58763;47.982;11.516;2022-10-04T21:09:34;94809.00;;;11.01;76.11
71107;BME280;58763;47.982;11.516;2022-10-04T21:12:02;94797.88;;;11.02;75.93
71107;BME280;58763;47.982;11.516;2022-10-04T21:14:33;94806.81;;;11.03;75.49
71107;BME280;58763;47.982;11.516;2022-10-04T21:19:52;94811.16;;;10.99;75.48
71107;BME280;58763;47.982;11.516;2022-10-04T21:29:57;94822.25;;;10.92;75.71
71107;BME280;58763;47.982;11.516;2022-10-04T21:32:24;94813.34;;;10.92;75.48
71107;BME280;58763;47.982;11.516;2022-10-04T21:34:50;94819.81;;;10.81;76.11
71107;BME280;58763;47.982;11.516;2022-10-04T21:37:16;94818.72;;;10.67;76.46
71107;BME280;58763;47.982;11.516;2022-10-04T21:39:42;94824.69;;;10.64;76.69
71107;BME280;58763;47.982;11.516;2022-10-04T21:42:08;94813.88;;;10.54;76.66
71107;BME280;58763;47.982;11.516;2022-10-04T21:44:33;94812.50;;;10.46;76.83
71107;BME280;58763;47.982;11.516;2022-10-04T21:46:59;94818.19;;;10.39;77.00
71107;BME280;58763;47.982;11.516;2022-10-04T21:49:25;94821.66;;;10.15;77.17
71107;BME280;58763;47.982;11.516;2022-10-04T21:51:50;94822.69;;;10.09;77.65
71107;BME280;58763;47.982;11.516;2022-10-04T21:54:15;94817.28;;;10.09;77.88
71107;BME280;58763;47.982;11.516;2022-10-04T21:56:41;94828.34;;;10.02;78.03
71107;BME280;58763;47.982;11.516;2022-10-04T21:59:06;94828.88;;;9.89;78.01
71107;BME280;58763;47.982;11.516;2022-10-04T22:01:32;94830.44;;;9.85;78.97
71107;BME280;58763;47.982;11.516;2022-10-04T22:03:58;94831.56;;;9.89;79.13
71107;BME280;58763;47.982;11.516;2022-10-04T22:06:23;94839.41;;;9.96;78.87
71107;BME280;58763;47.982;11.516;2022-10-04T22:08:48;94836.44;;;9.97;78.98
71107;BME280;58763;47.982;11.516;2022-10-04T22:11:14;94833.19;;;9.95;79.23
71107;BME280;58763;47.982;11.516;2022-10-04T22:13:39;94833.72;;;9.97;78.61
71107;BME280;58763;47.982;11.516;2022-10-04T22:16:05;94824.81;;;9.97;78.93
71107;BME280;58763;47.982;11.516;2022-10-04T22:18:31;94828.88;;;9.89;79.32
71107;BME280;58763;47.982;11.516;2022-10-04T22:20:58;94828.03;;;9.89;79.91
71107;BME280;58763;47.982;11.516;2022-10-04T22:23:25;94825.59;;;9.82;79.93
71107;BME280;58763;47.982;11.516;2022-10-04T22:25:52;94832.00;;;9.71;80.76
71107;BME280;58763;47.982;11.516;2022-10-04T22:30:47;94831.75;;;9.67;80.58
71107;BME280;58763;47.982;11.516;2022-10-04T22:33:44;94828.19;;;9.62;80.76
71107;BME280;58763;47.982;11.516;2022-10-04T22:36:31;94838.78;;;9.73;80.40
71107;BME280;58763;47.982;11.516;2022-10-04T22:41:48;94831.75;;;9.67;79.71
71107;BME280;58763;47.982;11.516;2022-10-04T22:44:22;94835.50;;;9.66;79.72
71107;BME280;58763;47.982;11.516;2022-10-04T22:46:53;94832.25;;;9.64;79.43
71107;BME280;58763;47.982;11.516;2022-10-04T22:49:28;94830.06;;;9.61;79.90
71107;BME280;58763;47.982;11.516;2022-10-04T22:51:55;94829.00;;;9.62;79.76
71107;BME280;58763;47.982;11.516;2022-10-04T22:54:29;94830.09;;;9.56;79.44
71107;BME280;58763;47.982;11.516;2022-10-04T22:56:55;94827.84;;;9.43;79.70
71107;BME280;58763;47.982;11.516;2022-10-04T22:59:23;94827.22;;;9.31;80.16
71107;BME280;58763;47.982;11.516;2022-10-04T23:01:51;94825.41;;;9.42;80.09
71107;BME280;58763;47.982;11.516;2022-10-04T23:04:21;94830.25;;;9.35;80.16
71107;BME280;58763;47.982;11.516;2022-10-04T23:06:47;94835.59;;;9.30;80.42
71107;BME280;58763;47.982;11.516;2022-10-04T23:09:12;94834.25;;;9.27;80.00
71107;BME280;58763;47.982;11.516;2022-10-04T23:11:38;94833.41;;;9.27;80.30
71107;BME280;58763;47.982;11.516;2022-10-04T23:14:03;94836.06;;;9.17;80.85
71107;BME280;58763;47.982;11.516;2022-10-04T23:16:29;94842.03;;;9.19;81.00
71107;BME280;58763;47.982;11.516;2022-10-04T23:19:21;94842.84;;;9.19;80.66
71107;BME280;58763;47.982;11.516;2022-10-04T23:21:48;94837.69;;;9.18;80.81
71107;BME280;58763;47.982;11.516;2022-10-04T23:24:21;94836.38;;;9.25;80.78
71107;BME280;58763;47.982;11.516;2022-10-04T23:26:55;94840.38;;;9.18;81.31